sensor_id;sensor_type;location;lat;lon;timestamp;pressure;altitude;pressure_sealevel;temperature
41593;BMP180;28026;48.562;14.440;2023-10-08T00:01:39;94247.00;;;22.40
41593;BMP180;28026;48.562;14.440;2023-10-08T00:04:12;94238.00;;;22.40
41593;BMP180;28026;48.562;14.440;2023-10-08T00:06:49;94219.00;;;22.40
41593;BMP180;28026;48.562;14.440;2023-10-08T00:09:23;94231.00;;;22.50
41593;BMP180;28026;48.562;14.440;2023-10-08T00:11:53;94230.00;;;22.50
41593;BMP180;28026;48.562;14.440;2023-10-08T00:14:25;94222.00;;;22.50
41593;BMP180;28026;48.562;14.440;2023-10-08T00:16:56;94216.00;;;22.50
41593;BMP180;28026;48.562;14.440;2023-10-08T00:19:27;94221.00;;;22.50
41593;BMP180;28026;48.562;14.440;2023-10-08T00:22:04;94210.00;;;22.50
41593;BMP180;28026;48.562;14.440;2023-10-08T00:24:41;94205.00;;;22.60
41593;BMP180;28026;48.562;14.440;2023-10-08T00:27:12;94209.00;;;22.60
41593;BMP180;28026;48.562;14.440;2023-10-08T00:29:45;94197.00;;;22.60
41593;BMP180;28026;48.562;14.440;2023-10-08T00:32:16;94202.00;;;22.60
41593;BMP180;28026;48.562;14.440;2023-10-08T00:34:47;94203.00;;;22.60
41593;BMP180;28026;48.562;14.440;2023-10-08T00:37:18;94209.00;;;22.60
41593;BMP180;28026;48.562;14.440;2023-10-08T00:39:54;94185.00;;;22.50
41593;BMP180;28026;48.562;14.440;2023-10-08T00:42:27;94193.00;;;22.60
41593;BMP180;28026;48.562;14.440;2023-10-08T00:44:59;94182.00;;;22.50
41593;BMP180;28026;48.562;14.440;2023-10-08T00:47:32;94178.00;;;22.50
41593;BMP180;28026;48.562;14.440;2023-10-08T00:50:10;94172.00;;;22.60
41593;BMP180;28026;48.562;14.440;2023-10-08T00:52:50;94180.00;;;22.50
41593;BMP180;28026;48.562;14.440;2023-10-08T00:55:30;94181.00;;;22.60
41593;BMP180;28026;48.562;14.440;2023-10-08T00:58:05;94187.00;;;22.60
41593;BMP180;28026;48.562;14.440;2023-10-08T01:00:40;94187.00;;;22.50
41593;BMP180;28026;48.562;14.440;2023-10-08T01:03:12;94184.00;;;22.50
41593;BMP180;28026;48.562;14.440;2023-10-08T01:05:46;94183.00;;;22.60
41593;BMP180;28026;48.562;14.440;2023-10-08T01:08:17;94181.00;;;22.50
41593;BMP180;28026;48.562;14.440;2023-10-08T01:14:02;94182.00;;;22.50
41593;BMP180;28026;48.562;14.440;2023-10-08T01:16:37;94189.00;;;22.50
41593;BMP180;28026;48.562;14.440;2023-10-08T01:19:09;94180.00;;;22.40
41593;BMP180;28026;48.562;14.440;2023-10-08T01:21:44;94187.00;;;22.50
41593;BMP180;28026;48.562;14.440;2023-10-08T01:24:15;94193.00;;;22.50
41593;BMP180;28026;48.562;14.440;2023-10-08T01:26:48;94194.00;;;22.50
41593;BMP180;28026;48.562;14.440;2023-10-08T01:29:18;94184.00;;;22.40
41593;BMP180;28026;48.562;14.440;2023-10-08T01:31:49;94181.00;;;22.40
41593;BMP180;28026;48.562;14.440;2023-10-08T01:34:21;94173.00;;;22.30
41593;BMP180;28026;48.562;14.440;2023-10-08T01:36:57;94177.00;;;22.30
41593;BMP180;28026;48.562;14.440;2023-10-08T01:39:36;94176.00;;;22.30
41593;BMP180;28026;48.562;14.440;2023-10-08T01:42:07;94168.00;;;22.30
41593;BMP180;28026;48.562;14.440;2023-10-08T01:44:47;94167.00;;;22.30
41593;BMP180;28026;48.562;14.440;2023-10-08T01:47:24;94177.00;;;22.30
41593;BMP180;28026;48.562;14.440;2023-10-08T01:49:56;94165.00;;;22.30
41593;BMP180;28026;48.562;14.440;2023-10-08T01:52:35;94166.00;;;22.30
41593;BMP180;28026;48.562;14.440;2023-10-08T01:55:07;94171.00;;;22.30
41593;BMP180;28026;48.562;14.440;2023-10-08T01:57:41;94150.00;;;22.30
41593;BMP180;28026;48.562;14.440;2023-10-08T02:00:14;94158.00;;;22.30
41593;BMP180;28026;48.562;14.440;2023-10-08T02:02:50;94153.00;;;22.30
41593;BMP180;28026;48.562;14.440;2023-10-08T02:05:21;94159.00;;;22.30
41593;BMP180;28026;48.562;14.440;2023-10-08T02:07:52;94152.00;;;22.30
41593;BMP180;28026;48.562;14.440;2023-10-08T02:10:25;94148.00;;;22.30
41593;BMP180;28026;48.562;14.440;2023-10-08T02:12:56;94138.00;;;22.40
41593;BMP180;28026;48.562;14.440;2023-10-08T02:15:27;94149.00;;;22.30
41593;BMP180;28026;48.562;14.440;2023-10-08T02:17:58;94154.00;;;22.40
41593;BMP180;28026;48.562;14.440;2023-10-08T02:20:29;94150.00;;;22.40
41593;BMP180;28026;48.562;14.440;2023-10-08T02:23:01;94151.00;;;22.40
41593;BMP180;28026;48.562;14.440;2023-10-08T02:25:32;94151.00;;;22.40
41593;BMP180;28026;48.562;14.440;2023-10-08T02:28:07;94150.00;;;22.50
41593;BMP180;28026;48.562;14.440;2023-10-08T02:30:46;94162.00;;;22.50
41593;BMP180;28026;48.562;14.440;2023-10-08T02:33:17;94155.00;;;22.50
41593;BMP180;28026;48.562;14.440;2023-10-08T02:35:48;94158.00;;;22.40
41593;BMP180;28026;48.562;14.440;2023-10-08T02:38:19;94163.00;;;22.40
41593;BMP180;28026;48.562;14.440;2023-10-08T02:40:51;94148.00;;;22.40
41593;BMP180;28026;48.562;14.440;2023-10-08T02:43:27;94156.00;;;22.40
41593;BMP180;28026;48.562;14.440;2023-10-08T02:46:00;94151.00;;;22.30
41593;BMP180;28026;48.562;14.440;2023-10-08T02:48:31;94145.00;;;22.30
41593;BMP180;28026;48.562;14.440;2023-10-08T02:51:03;94155.00;;;22.30
41593;BMP180;28026;48.562;14.440;2023-10-08T02:53:44;94144.00;;;22.30
41593;BMP180;28026;48.562;14.440;2023-10-08T02:56:15;94158.00;;;22.30
41593;BMP180;28026;48.562;14.440;2023-10-08T02:58:46;94156.00;;;22.30
41593;BMP180;28026;48.562;14.440;2023-10-08T03:01:18;94158.00;;;22.30
41593;BMP180;28026;48.562;14.440;2023-10-08T03:03:50;94161.00;;;22.30
41593;BMP180;28026;48.562;14.440;2023-10-08T03:06:24;94170.00;;;22.30
41593;BMP180;28026;48.562;14.440;2023-10-08T03:08:55;94170.00;;;22.30
41593;BMP180;28026;48.562;14.440;2023-10-08T03:11:26;94167.00;;;22.30
41593;BMP180;28026;48.562;14.440;2023-10-08T03:13:57;94172.00;;;22.40
41593;BMP180;28026;48.562;14.440;2023-10-08T03:16:29;94173.00;;;22.40
41593;BMP180;28026;48.562;14.440;2023-10-08T03:19:04;94168.00;;;22.40
41593;BMP180;28026;48.562;14.440;2023-10-08T03:21:36;94166.00;;;22.50
41593;BMP180;28026;48.562;14.440;2023-10-08T03:24:08;94170.00;;;22.50
41593;BMP180;28026;48.562;14.440;2023-10-08T03:27:06;94177.00;;;22.50
41593;BMP180;28026;48.562;14.440;2023-10-08T03:29:37;94160.00;;;22.50
41593;BMP180;28026;48.562;14.440;2023-10-08T03:32:14;94155.00;;;22.50
41593;BMP180;28026;48.562;14.440;2023-10-08T03:34:49;94155.00;;;22.50
41593;BMP180;28026;48.562;14.440;2023-10-08T03:37:24;94155.00;;;22.50
41593;BMP180;28026;48.562;14.440;2023-10-08T03:40:11;94160.00;;;22.50
41593;BMP180;28026;48.562;14.440;2023-10-08T03:43:12;94143.00;;;22.40
41593;BMP180;28026;48.562;14.440;2023-10-08T03:46:04;94152.00;;;22.40
41593;BMP180;28026;48.562;14.440;2023-10-08T03:48:36;94147.00;;;22.50
41593;BMP180;28026;48.562;14.440;2023-10-08T03:51:07;94144.00;;;22.50
41593;BMP180;28026;48.562;14.440;2023-10-08T03:53:42;94161.00;;;22.50
41593;BMP180;28026;48.562;14.440;2023-10-08T03:56:28;94152.00;;;22.60
41593;BMP180;28026;48.562;14.440;2023-10-08T03:59:05;94148.00;;;22.60
41593;BMP180;28026;48.562;14.440;2023-10-08T04:01:51;94154.00;;;22.60
41593;BMP180;28026;48.562;14.440;2023-10-08T04:04:25;94158.00;;;22.60
41593;BMP180;28026;48.562;14.440;2023-10-08T04:07:01;94165.00;;;22.60
41593;BMP180;28026;48.562;14.440;2023-10-08T04:09:52;94176.00;;;22.60
41593;BMP180;28026;48.562;14.440;2023-10-08T04:12:39;94168.00;;;22.70
41593;BMP180;28026;48.562;14.440;2023-10-08T04:15:21;94170.00;;;22.70
41593;BMP180;28026;48.562;14.440;2023-10-08T04:17:52;94159.00;;;22.70
41593;BMP180;28026;48.562;14.440;2023-10-08T04:20:22;94163.00;;;22.60
41593;BMP180;28026;48.562;14.440;2023-10-08T04:23:10;94157.00;;;22.60
41593;BMP180;28026;48.562;14.440;2023-10-08T04:25:51;94155.00;;;22.60
41593;BMP180;28026;48.562;14.440;2023-10-08T04:28:25;94150.00;;;22.50
41593;BMP180;28026;48.562;14.440;2023-10-08T04:30:59;94143.00;;;22.50
41593;BMP180;28026;48.562;14.440;2023-10-08T04:33:34;94144.00;;;22.50
41593;BMP180;28026;48.562;14.440;2023-10-08T04:36:04;94148.00;;;22.40
41593;BMP180;28026;48.562;14.440;2023-10-08T04:38:38;94143.00;;;22.40
41593;BMP180;28026;48.562;14.440;2023-10-08T04:41:11;94134.00;;;22.30
41593;BMP180;28026;48.562;14.440;2023-10-08T04:43:42;94128.00;;;22.30
41593;BMP180;28026;48.562;14.440;2023-10-08T04:46:13;94142.00;;;22.30
41593;BMP180;28026;48.562;14.440;2023-10-08T04:48:50;94144.00;;;22.20
41593;BMP180;28026;48.562;14.440;2023-10-08T04:51:22;94148.00;;;22.20
41593;BMP180;28026;48.562;14.440;2023-10-08T04:53:53;94144.00;;;22.20
41593;BMP180;28026;48.562;14.440;2023-10-08T04:56:25;94151.00;;;22.20
41593;BMP180;28026;48.562;14.440;2023-10-08T04:58:58;94141.00;;;22.10
41593;BMP180;28026;48.562;14.440;2023-10-08T05:01:29;94143.00;;;22.10
41593;BMP180;28026;48.562;14.440;2023-10-08T05:04:11;94149.00;;;22.00
41593;BMP180;28026;48.562;14.440;2023-10-08T05:06:54;94167.00;;;22.00
41593;BMP180;28026;48.562;14.440;2023-10-08T05:09:45;94170.00;;;22.00
41593;BMP180;28026;48.562;14.440;2023-10-08T05:12:36;94178.00;;;22.00
41593;BMP180;28026;48.562;14.440;2023-10-08T05:15:09;94179.00;;;21.90
41593;BMP180;28026;48.562;14.440;2023-10-08T05:17:47;94181.00;;;21.90
41593;BMP180;28026;48.562;14.440;2023-10-08T05:20:22;94172.00;;;21.90
41593;BMP180;28026;48.562;14.440;2023-10-08T05:23:31;94162.00;;;21.80
41593;BMP180;28026;48.562;14.440;2023-10-08T05:26:23;94159.00;;;21.70
41593;BMP180;28026;48.562;14.440;2023-10-08T05:29:12;94161.00;;;21.70
41593;BMP180;28026;48.562;14.440;2023-10-08T05:32:06;94171.00;;;21.70
41593;BMP180;28026;48.562;14.440;2023-10-08T05:34:55;94168.00;;;21.60
41593;BMP180;28026;48.562;14.440;2023-10-08T05:37:49;94182.00;;;21.60
41593;BMP180;28026;48.562;14.440;2023-10-08T05:40:32;94180.00;;;21.70
41593;BMP180;28026;48.562;14.440;2023-10-08T05:43:34;94171.00;;;21.60
41593;BMP180;28026;48.562;14.440;2023-10-08T05:46:12;94181.00;;;21.60
41593;BMP180;28026;48.562;14.440;2023-10-08T05:49:09;94186.00;;;21.60
41593;BMP180;28026;48.562;14.440;2023-10-08T05:51:42;94172.00;;;21.60
41593;BMP180;28026;48.562;14.440;2023-10-08T05:54:19;94185.00;;;21.70
41593;BMP180;28026;48.562;14.440;2023-10-08T05:57:09;94201.00;;;21.70
41593;BMP180;28026;48.562;14.440;2023-10-08T05:59:45;94206.00;;;21.70
41593;BMP180;28026;48.562;14.440;2023-10-08T06:02:27;94198.00;;;21.70
41593;BMP180;28026;48.562;14.440;2023-10-08T06:05:19;94204.00;;;21.70
41593;BMP180;28026;48.562;14.440;2023-10-08T06:07:54;94211.00;;;21.70
41593;BMP180;28026;48.562;14.440;2023-10-08T06:10:30;94214.00;;;21.70
41593;BMP180;28026;48.562;14.440;2023-10-08T06:13:03;94218.00;;;21.70
41593;BMP180;28026;48.562;14.440;2023-10-08T06:16:00;94230.00;;;21.80
41593;BMP180;28026;48.562;14.440;2023-10-08T06:18:33;94231.00;;;21.90
41593;BMP180;28026;48.562;14.440;2023-10-08T06:21:06;94223.00;;;21.90
41593;BMP180;28026;48.562;14.440;2023-10-08T06:23:40;94226.00;;;22.00
41593;BMP180;28026;48.562;14.440;2023-10-08T06:26:13;94228.00;;;22.00
41593;BMP180;28026;48.562;14.440;2023-10-08T06:28:45;94216.00;;;22.10
41593;BMP180;28026;48.562;14.440;2023-10-08T06:31:16;94210.00;;;22.20
41593;BMP180;28026;48.562;14.440;2023-10-08T06:33:46;94212.00;;;22.30
41593;BMP180;28026;48.562;14.440;2023-10-08T06:36:19;94214.00;;;22.50
41593;BMP180;28026;48.562;14.440;2023-10-08T06:38:54;94206.00;;;22.60
41593;BMP180;28026;48.562;14.440;2023-10-08T06:41:25;94205.00;;;22.80
41593;BMP180;28026;48.562;14.440;2023-10-08T06:44:04;94196.00;;;22.90
41593;BMP180;28026;48.562;14.440;2023-10-08T06:46:44;94188.00;;;22.90
41593;BMP180;28026;48.562;14.440;2023-10-08T06:49:16;94204.00;;;23.00
41593;BMP180;28026;48.562;14.440;2023-10-08T06:51:50;94210.00;;;23.00
41593;BMP180;28026;48.562;14.440;2023-10-08T06:54:23;94199.00;;;22.90
41593;BMP180;28026;48.562;14.440;2023-10-08T06:56:54;94191.00;;;22.90
41593;BMP180;28026;48.562;14.440;2023-10-08T06:59:25;94197.00;;;22.90
41593;BMP180;28026;48.562;14.440;2023-10-08T07:02:01;94205.00;;;22.90
41593;BMP180;28026;48.562;14.440;2023-10-08T07:04:33;94192.00;;;22.90
41593;BMP180;28026;48.562;14.440;2023-10-08T07:07:04;94196.00;;;22.90
41593;BMP180;28026;48.562;14.440;2023-10-08T07:09:39;94199.00;;;22.90
41593;BMP180;28026;48.562;14.440;2023-10-08T07:12:14;94199.00;;;22.90
41593;BMP180;28026;48.562;14.440;2023-10-08T07:14:45;94214.00;;;22.90
41593;BMP180;28026;48.562;14.440;2023-10-08T07:17:17;94202.00;;;22.90
41593;BMP180;28026;48.562;14.440;2023-10-08T07:19:50;94216.00;;;22.90
41593;BMP180;28026;48.562;14.440;2023-10-08T07:22:21;94205.00;;;22.90
41593;BMP180;28026;48.562;14.440;2023-10-08T07:24:59;94203.00;;;22.90
41593;BMP180;28026;48.562;14.440;2023-10-08T07:27:30;94209.00;;;22.90
41593;BMP180;28026;48.562;14.440;2023-10-08T07:30:03;94207.00;;;22.90
41593;BMP180;28026;48.562;14.440;2023-10-08T07:32:43;94198.00;;;22.90
41593;BMP180;28026;48.562;14.440;2023-10-08T07:35:15;94197.00;;;22.90
41593;BMP180;28026;48.562;14.440;2023-10-08T07:37:59;94208.00;;;22.90
41593;BMP180;28026;48.562;14.440;2023-10-08T07:40:33;94223.00;;;22.90
41593;BMP180;28026;48.562;14.440;2023-10-08T07:43:07;94227.00;;;22.90
41593;BMP180;28026;48.562;14.440;2023-10-08T07:45:40;94213.00;;;22.90
41593;BMP180;28026;48.562;14.440;2023-10-08T07:48:16;94224.00;;;22.90
41593;BMP180;28026;48.562;14.440;2023-10-08T07:50:47;94226.00;;;22.90
41593;BMP180;28026;48.562;14.440;2023-10-08T07:53:18;94229.00;;;22.90
41593;BMP180;28026;48.562;14.440;2023-10-08T07:55:48;94244.00;;;22.90
41593;BMP180;28026;48.562;14.440;2023-10-08T07:58:19;94249.00;;;22.90
41593;BMP180;28026;48.562;14.440;2023-10-08T08:00:50;94256.00;;;23.00
41593;BMP180;28026;48.562;14.440;2023-10-08T08:03:27;94254.00;;;23.00
41593;BMP180;28026;48.562;14.440;2023-10-08T08:05:58;94257.00;;;23.00
41593;BMP180;28026;48.562;14.440;2023-10-08T08:08:29;94261.00;;;23.10
41593;BMP180;28026;48.562;14.440;2023-10-08T08:11:00;94270.00;;;23.20
41593;BMP180;28026;48.562;14.440;2023-10-08T08:13:36;94273.00;;;23.30
41593;BMP180;28026;48.562;14.440;2023-10-08T08:16:07;94278.00;;;23.30
41593;BMP180;28026;48.562;14.440;2023-10-08T08:18:52;94277.00;;;23.40
41593;BMP180;28026;48.562;14.440;2023-10-08T08:21:27;94283.00;;;23.50
41593;BMP180;28026;48.562;14.440;2023-10-08T08:24:01;94290.00;;;23.50
41593;BMP180;28026;48.562;14.440;2023-10-08T08:26:39;94293.00;;;23.50
41593;BMP180;28026;48.562;14.440;2023-10-08T08:29:11;94290.00;;;23.50
41593;BMP180;28026;48.562;14.440;2023-10-08T08:31:45;94294.00;;;23.50
41593;BMP180;28026;48.562;14.440;2023-10-08T08:34:16;94289.00;;;23.50
41593;BMP180;28026;48.562;14.440;2023-10-08T08:36:50;94279.00;;;23.50
41593;BMP180;28026;48.562;14.440;2023-10-08T08:39:21;94286.00;;;23.50
41593;BMP180;28026;48.562;14.440;2023-10-08T08:42:03;94288.00;;;23.50
41593;BMP180;28026;48.562;14.440;2023-10-08T08:44:42;94298.00;;;23.50
41593;BMP180;28026;48.562;14.440;2023-10-08T08:47:17;94313.00;;;23.50
41593;BMP180;28026;48.562;14.440;2023-10-08T08:49:52;94314.00;;;23.60
41593;BMP180;28026;48.562;14.440;2023-10-08T08:52:25;94300.00;;;23.60
41593;BMP180;28026;48.562;14.440;2023-10-08T08:54:57;94306.00;;;23.80
41593;BMP180;28026;48.562;14.440;2023-10-08T08:57:28;94328.00;;;23.80
41593;BMP180;28026;48.562;14.440;2023-10-08T09:00:02;94333.00;;;23.80
41593;BMP180;28026;48.562;14.440;2023-10-08T09:02:39;94326.00;;;23.80
41593;BMP180;28026;48.562;14.440;2023-10-08T09:05:11;94331.00;;;23.90
41593;BMP180;28026;48.562;14.440;2023-10-08T09:07:58;94347.00;;;24.00
41593;BMP180;28026;48.562;14.440;2023-10-08T09:10:37;94341.00;;;24.00
41593;BMP180;28026;48.562;14.440;2023-10-08T09:13:22;94324.00;;;24.10
41593;BMP180;28026;48.562;14.440;2023-10-08T09:16:03;94320.00;;;24.10
41593;BMP180;28026;48.562;14.440;2023-10-08T09:18:38;94312.00;;;24.20
41593;BMP180;28026;48.562;14.440;2023-10-08T09:21:19;94317.00;;;24.20
41593;BMP180;28026;48.562;14.440;2023-10-08T09:23:53;94307.00;;;24.30
41593;BMP180;28026;48.562;14.440;2023-10-08T09:26:26;94308.00;;;24.30
41593;BMP180;28026;48.562;14.440;2023-10-08T09:29:00;94318.00;;;24.20
41593;BMP180;28026;48.562;14.440;2023-10-08T09:31:32;94323.00;;;24.20
41593;BMP180;28026;48.562;14.440;2023-10-08T09:34:06;94320.00;;;24.20
41593;BMP180;28026;48.562;14.440;2023-10-08T09:36:37;94324.00;;;24.20
41593;BMP180;28026;48.562;14.440;2023-10-08T09:39:10;94338.00;;;24.10
41593;BMP180;28026;48.562;14.440;2023-10-08T09:41:56;94331.00;;;24.10
41593;BMP180;28026;48.562;14.440;2023-10-08T09:44:28;94336.00;;;24.10
41593;BMP180;28026;48.562;14.440;2023-10-08T09:47:05;94347.00;;;24.10
41593;BMP180;28026;48.562;14.440;2023-10-08T09:52:41;94367.00;;;24.10
41593;BMP180;28026;48.562;14.440;2023-10-08T09:55:18;94367.00;;;24.00
41593;BMP180;28026;48.562;14.440;2023-10-08T09:57:50;94372.00;;;24.00
41593;BMP180;28026;48.562;14.440;2023-10-08T10:00:24;94380.00;;;24.00
41593;BMP180;28026;48.562;14.440;2023-10-08T10:03:03;94379.00;;;24.00
41593;BMP180;28026;48.562;14.440;2023-10-08T10:05:35;94384.00;;;24.00
41593;BMP180;28026;48.562;14.440;2023-10-08T10:08:08;94391.00;;;23.90
41593;BMP180;28026;48.562;14.440;2023-10-08T10:10:43;94395.00;;;23.80
41593;BMP180;28026;48.562;14.440;2023-10-08T10:13:28;94389.00;;;23.70
41593;BMP180;28026;48.562;14.440;2023-10-08T10:16:05;94385.00;;;23.60
41593;BMP180;28026;48.562;14.440;2023-10-08T10:18:38;94391.00;;;23.50
41593;BMP180;28026;48.562;14.440;2023-10-08T10:23:45;94397.00;;;23.50
41593;BMP180;28026;48.562;14.440;2023-10-08T10:26:33;94407.00;;;23.40
41593;BMP180;28026;48.562;14.440;2023-10-08T10:31:50;94392.00;;;23.20
41593;BMP180;28026;48.562;14.440;2023-10-08T10:34:28;94388.00;;;23.10
41593;BMP180;28026;48.562;14.440;2023-10-08T10:37:01;94385.00;;;23.00
41593;BMP180;28026;48.562;14.440;2023-10-08T10:39:57;94388.00;;;23.10
41593;BMP180;28026;48.562;14.440;2023-10-08T10:42:34;94388.00;;;23.00
41593;BMP180;28026;48.562;14.440;2023-10-08T10:45:16;94376.00;;;23.00
41593;BMP180;28026;48.562;14.440;2023-10-08T10:48:06;94385.00;;;23.00
41593;BMP180;28026;48.562;14.440;2023-10-08T10:50:58;94382.00;;;23.10
41593;BMP180;28026;48.562;14.440;2023-10-08T10:53:38;94398.00;;;23.10
41593;BMP180;28026;48.562;14.440;2023-10-08T10:56:27;94397.00;;;23.10
41593;BMP180;28026;48.562;14.440;2023-10-08T10:59:02;94399.00;;;23.10
41593;BMP180;28026;48.562;14.440;2023-10-08T11:01:56;94404.00;;;23.20
41593;BMP180;28026;48.562;14.440;2023-10-08T11:04:38;94419.00;;;23.30
41593;BMP180;28026;48.562;14.440;2023-10-08T11:07:21;94417.00;;;23.30
41593;BMP180;28026;48.562;14.440;2023-10-08T11:09:54;94415.00;;;23.20
41593;BMP180;28026;48.562;14.440;2023-10-08T11:12:25;94415.00;;;23.20
41593;BMP180;28026;48.562;14.440;2023-10-08T11:15:13;94419.00;;;23.10
41593;BMP180;28026;48.562;14.440;2023-10-08T11:17:47;94416.00;;;23.20
41593;BMP180;28026;48.562;14.440;2023-10-08T11:20:27;94423.00;;;23.30
41593;BMP180;28026;48.562;14.440;2023-10-08T11:22:59;94418.00;;;23.30
41593;BMP180;28026;48.562;14.440;2023-10-08T11:25:55;94425.00;;;23.20
41593;BMP180;28026;48.562;14.440;2023-10-08T11:28:35;94424.00;;;23.10
41593;BMP180;28026;48.562;14.440;2023-10-08T11:31:17;94439.00;;;23.00
41593;BMP180;28026;48.562;14.440;2023-10-08T11:33:50;94428.00;;;22.90
41593;BMP180;28026;48.562;14.440;2023-10-08T11:36:28;94451.00;;;22.70
41593;BMP180;28026;48.562;14.440;2023-10-08T11:39:12;94468.00;;;22.50
41593;BMP180;28026;48.562;14.440;2023-10-08T11:41:59;94442.00;;;22.30
41593;BMP180;28026;48.562;14.440;2023-10-08T11:44:47;94480.00;;;22.10
41593;BMP180;28026;48.562;14.440;2023-10-08T11:47:18;94484.00;;;21.90
41593;BMP180;28026;48.562;14.440;2023-10-08T11:49:52;94450.00;;;21.70
41593;BMP180;28026;48.562;14.440;2023-10-08T11:52:39;94487.00;;;21.50
41593;BMP180;28026;48.562;14.440;2023-10-08T11:55:12;94484.00;;;21.40
41593;BMP180;28026;48.562;14.440;2023-10-08T11:57:49;94489.00;;;21.30
41593;BMP180;28026;48.562;14.440;2023-10-08T12:00:21;94491.00;;;21.20
41593;BMP180;28026;48.562;14.440;2023-10-08T12:02:55;94486.00;;;21.00
41593;BMP180;28026;48.562;14.440;2023-10-08T12:05:26;94501.00;;;20.90
41593;BMP180;28026;48.562;14.440;2023-10-08T12:07:59;94500.00;;;20.80
41593;BMP180;28026;48.562;14.440;2023-10-08T12:10:30;94509.00;;;20.70
41593;BMP180;28026;48.562;14.440;2023-10-08T12:13:04;94517.00;;;20.60
41593;BMP180;28026;48.562;14.440;2023-10-08T12:15:36;94516.00;;;20.50
41593;BMP180;28026;48.562;14.440;2023-10-08T12:18:12;94508.00;;;20.50
41593;BMP180;28026;48.562;14.440;2023-10-08T12:20:45;94511.00;;;20.40
41593;BMP180;28026;48.562;14.440;2023-10-08T12:23:18;94522.00;;;20.30
41593;BMP180;28026;48.562;14.440;2023-10-08T12:25:59;94514.00;;;20.20
41593;BMP180;28026;48.562;14.440;2023-10-08T12:28:30;94516.00;;;20.10
41593;BMP180;28026;48.562;14.440;2023-10-08T12:31:03;94502.00;;;19.90
41593;BMP180;28026;48.562;14.440;2023-10-08T12:33:34;94521.00;;;19.90
41593;BMP180;28026;48.562;14.440;2023-10-08T12:36:05;94517.00;;;19.80
41593;BMP180;28026;48.562;14.440;2023-10-08T12:38:43;94526.00;;;19.70
41593;BMP180;28026;48.562;14.440;2023-10-08T12:41:14;94534.00;;;19.60
41593;BMP180;28026;48.562;14.440;2023-10-08T12:43:45;94538.00;;;19.60
41593;BMP180;28026;48.562;14.440;2023-10-08T12:46:16;94531.00;;;19.50
41593;BMP180;28026;48.562;14.440;2023-10-08T12:48:54;94536.00;;;19.40
41593;BMP180;28026;48.562;14.440;2023-10-08T12:51:25;94527.00;;;19.30
41593;BMP180;28026;48.562;14.440;2023-10-08T12:53:56;94533.00;;;19.20
41593;BMP180;28026;48.562;14.440;2023-10-08T12:56:35;94533.00;;;19.20
41593;BMP180;28026;48.562;14.440;2023-10-08T12:59:09;94538.00;;;19.10
41593;BMP180;28026;48.562;14.440;2023-10-08T13:01:46;94540.00;;;19.00
41593;BMP180;28026;48.562;14.440;2023-10-08T13:04:21;94532.00;;;18.90
41593;BMP180;28026;48.562;14.440;2023-10-08T13:06:59;94527.00;;;18.80
41593;BMP180;28026;48.562;14.440;2023-10-08T13:09:33;94540.00;;;18.80
41593;BMP180;28026;48.562;14.440;2023-10-08T13:12:07;94538.00;;;18.80
41593;BMP180;28026;48.562;14.440;2023-10-08T13:14:41;94547.00;;;18.80
41593;BMP180;28026;48.562;14.440;2023-10-08T13:17:15;94550.00;;;18.70
41593;BMP180;28026;48.562;14.440;2023-10-08T13:19:46;94554.00;;;18.70
41593;BMP180;28026;48.562;14.440;2023-10-08T13:22:17;94552.00;;;18.70
41593;BMP180;28026;48.562;14.440;2023-10-08T13:24:50;94559.00;;;18.70
41593;BMP180;28026;48.562;14.440;2023-10-08T13:27:22;94564.00;;;18.70
41593;BMP180;28026;48.562;14.440;2023-10-08T13:29:54;94569.00;;;18.70
41593;BMP180;28026;48.562;14.440;2023-10-08T13:32:25;94556.00;;;18.70
41593;BMP180;28026;48.562;14.440;2023-10-08T13:34:56;94558.00;;;18.70
41593;BMP180;28026;48.562;14.440;2023-10-08T13:37:28;94559.00;;;18.60
41593;BMP180;28026;48.562;14.440;2023-10-08T13:39:59;94564.00;;;18.60
41593;BMP180;28026;48.562;14.440;2023-10-08T13:42:30;94557.00;;;18.60
41593;BMP180;28026;48.562;14.440;2023-10-08T13:45:00;94552.00;;;18.60
41593;BMP180;28026;48.562;14.440;2023-10-08T13:47:38;94552.00;;;18.60
41593;BMP180;28026;48.562;14.440;2023-10-08T13:50:10;94544.00;;;18.70
41593;BMP180;28026;48.562;14.440;2023-10-08T13:52:43;94544.00;;;18.60
41593;BMP180;28026;48.562;14.440;2023-10-08T13:55:14;94548.00;;;18.60
41593;BMP180;28026;48.562;14.440;2023-10-08T13:57:48;94562.00;;;18.70
41593;BMP180;28026;48.562;14.440;2023-10-08T14:00:20;94551.00;;;18.70
41593;BMP180;28026;48.562;14.440;2023-10-08T14:02:56;94551.00;;;18.70
41593;BMP180;28026;48.562;14.440;2023-10-08T14:05:27;94559.00;;;18.70
41593;BMP180;28026;48.562;14.440;2023-10-08T14:08:00;94558.00;;;18.70
41593;BMP180;28026;48.562;14.440;2023-10-08T14:10:32;94554.00;;;18.70
41593;BMP180;28026;48.562;14.440;2023-10-08T14:13:03;94543.00;;;18.70
41593;BMP180;28026;48.562;14.440;2023-10-08T14:15:34;94562.00;;;18.70
41593;BMP180;28026;48.562;14.440;2023-10-08T14:18:13;94566.00;;;18.70
41593;BMP180;28026;48.562;14.440;2023-10-08T14:20:47;94563.00;;;18.60
41593;BMP180;28026;48.562;14.440;2023-10-08T14:23:22;94566.00;;;18.70
41593;BMP180;28026;48.562;14.440;2023-10-08T14:25:55;94566.00;;;18.70
41593;BMP180;28026;48.562;14.440;2023-10-08T14:28:37;94563.00;;;18.70
41593;BMP180;28026;48.562;14.440;2023-10-08T14:31:11;94565.00;;;18.70
41593;BMP180;28026;48.562;14.440;2023-10-08T14:33:45;94555.00;;;18.70
41593;BMP180;28026;48.562;14.440;2023-10-08T14:36:35;94547.00;;;18.70
41593;BMP180;28026;48.562;14.440;2023-10-08T14:39:24;94536.00;;;18.70
41593;BMP180;28026;48.562;14.440;2023-10-08T14:42:14;94536.00;;;18.70
41593;BMP180;28026;48.562;14.440;2023-10-08T14:45:05;94543.00;;;18.80
41593;BMP180;28026;48.562;14.440;2023-10-08T14:47:41;94550.00;;;18.80
41593;BMP180;28026;48.562;14.440;2023-10-08T14:50:12;94553.00;;;18.80
41593;BMP180;28026;48.562;14.440;2023-10-08T14:52:46;94538.00;;;18.90
41593;BMP180;28026;48.562;14.440;2023-10-08T14:55:17;94537.00;;;18.90
41593;BMP180;28026;48.562;14.440;2023-10-08T14:57:52;94535.00;;;19.00